sensor_id;sensor_type;location;lat;lon;timestamp;pressure;altitude;pressure_sealevel;temperature;humidity
41515;BME280;27247;48.020;16.720;2023-12-14T00:01:25;98624.56;;;3.78;100.00
41515;BME280;27247;48.020;16.720;2023-12-14T00:05:37;98617.63;;;3.77;100.00
41515;BME280;27247;48.020;16.720;2023-12-14T00:09:48;98632.69;;;3.84;100.00
41515;BME280;27247;48.020;16.720;2023-12-14T00:14:01;98628.22;;;3.85;100.00
41515;BME280;27247;48.020;16.720;2023-12-14T00:18:23;98637.94;;;3.76;100.00
41515;BME280;27247;48.020;16.720;2023-12-14T00:22:43;98633.34;;;3.87;100.00
41515;BME280;27247;48.020;16.720;2023-12-14T00:27:00;98648.03;;;3.81;100.00
41515;BME280;27247;48.020;16.720;2023-12-14T00:31:15;98653.81;;;3.93;100.00
41515;BME280;27247;48.020;16.720;2023-12-14T00:35:25;98642.75;;;3.97;100.00
41515;BME280;27247;48.020;16.720;2023-12-14T00:39:41;98653.66;;;3.86;100.00
41515;BME280;27247;48.020;16.720;2023-12-14T00:43:54;98664.03;;;3.79;100.00
41515;BME280;27247;48.020;16.720;2023-12-14T00:48:06;98668.69;;;3.85;100.00
41515;BME280;27247;48.020;16.720;2023-12-14T00:52:17;98677.91;;;3.81;100.00
41515;BME280;27247;48.020;16.720;2023-12-14T00:56:36;98692.44;;;3.77;100.00
41515;BME280;27247;48.020;16.720;2023-12-14T01:00:47;98691.31;;;3.88;100.00
41515;BME280;27247;48.020;16.720;2023-12-14T01:05:00;98689.34;;;3.90;100.00
41515;BME280;27247;48.020;16.720;2023-12-14T01:09:14;98695.25;;;3.84;100.00
41515;BME280;27247;48.020;16.720;2023-12-14T01:13:24;98690.47;;;3.79;100.00
41515;BME280;27247;48.020;16.720;2023-12-14T01:17:35;98703.38;;;3.91;100.00
41515;BME280;27247;48.020;16.720;2023-12-14T01:21:52;98705.50;;;3.87;100.00
41515;BME280;27247;48.020;16.720;2023-12-14T01:26:05;98716.69;;;3.73;100.00
41515;BME280;27247;48.020;16.720;2023-12-14T01:30:21;98723.16;;;3.78;100.00
41515;BME280;27247;48.020;16.720;2023-12-14T01:34:37;98732.38;;;3.74;100.00
41515;BME280;27247;48.020;16.720;2023-12-14T01:38:51;98741.22;;;3.57;100.00
41515;BME280;27247;48.020;16.720;2023-12-14T01:43:10;98728.69;;;3.59;100.00
41515;BME280;27247;48.020;16.720;2023-12-14T01:47:33;98735.31;;;3.63;100.00
41515;BME280;27247;48.020;16.720;2023-12-14T01:51:46;98728.06;;;3.65;100.00
41515;BME280;27247;48.020;16.720;2023-12-14T01:55:57;98730.03;;;3.63;100.00
41515;BME280;27247;48.020;16.720;2023-12-14T02:00:20;98732.88;;;3.78;100.00
41515;BME280;27247;48.020;16.720;2023-12-14T02:04:44;98730.72;;;3.73;100.00
41515;BME280;27247;48.020;16.720;2023-12-14T02:08:57;98731.06;;;3.78;100.00
41515;BME280;27247;48.020;16.720;2023-12-14T02:13:11;98743.81;;;3.83;100.00
41515;BME280;27247;48.020;16.720;2023-12-14T02:17:25;98752.38;;;3.77;100.00
41515;BME280;27247;48.020;16.720;2023-12-14T02:21:36;98759.34;;;3.86;100.00
41515;BME280;27247;48.020;16.720;2023-12-14T02:25:47;98764.31;;;3.89;100.00
41515;BME280;27247;48.020;16.720;2023-12-14T02:30:04;98763.63;;;3.87;100.00
41515;BME280;27247;48.020;16.720;2023-12-14T02:34:16;98768.25;;;3.85;100.00
41515;BME280;27247;48.020;16.720;2023-12-14T02:38:29;98779.81;;;3.84;100.00
41515;BME280;27247;48.020;16.720;2023-12-14T02:42:42;98777.16;;;3.84;100.00
41515;BME280;27247;48.020;16.720;2023-12-14T02:47:02;98777.53;;;3.89;100.00
41515;BME280;27247;48.020;16.720;2023-12-14T02:51:14;98776.22;;;3.93;100.00
41515;BME280;27247;48.020;16.720;2023-12-14T02:55:28;98784.81;;;3.95;100.00
41515;BME280;27247;48.020;16.720;2023-12-14T02:59:46;98792.56;;;3.89;100.00
41515;BME280;27247;48.020;16.720;2023-12-14T03:03:57;98798.00;;;3.87;100.00
41515;BME280;27247;48.020;16.720;2023-12-14T03:08:13;98805.25;;;3.85;100.00
41515;BME280;27247;48.020;16.720;2023-12-14T03:12:23;98800.47;;;3.89;100.00
41515;BME280;27247;48.020;16.720;2023-12-14T03:16:34;98803.44;;;3.85;100.00
41515;BME280;27247;48.020;16.720;2023-12-14T03:20:45;98814.31;;;3.82;100.00
41515;BME280;27247;48.020;16.720;2023-12-14T03:24:56;98820.59;;;3.81;100.00
41515;BME280;27247;48.020;16.720;2023-12-14T03:29:06;98823.19;;;3.73;100.00
41515;BME280;27247;48.020;16.720;2023-12-14T03:33:18;98824.22;;;3.80;100.00
41515;BME280;27247;48.020;16.720;2023-12-14T03:37:28;98823.56;;;3.78;100.00
41515;BME280;27247;48.020;16.720;2023-12-14T03:41:39;98819.88;;;3.71;100.00
41515;BME280;27247;48.020;16.720;2023-12-14T03:45:49;98825.59;;;3.59;100.00
41515;BME280;27247;48.020;16.720;2023-12-14T03:49:59;98831.22;;;3.64;100.00
41515;BME280;27247;48.020;16.720;2023-12-14T03:54:10;98842.94;;;3.61;100.00
41515;BME280;27247;48.020;16.720;2023-12-14T03:58:20;98843.44;;;3.65;100.00
41515;BME280;27247;48.020;16.720;2023-12-14T04:02:30;98852.97;;;3.58;100.00
41515;BME280;27247;48.020;16.720;2023-12-14T04:06:41;98860.09;;;3.57;100.00
41515;BME280;27247;48.020;16.720;2023-12-14T04:10:51;98856.25;;;3.51;100.00
41515;BME280;27247;48.020;16.720;2023-12-14T04:15:02;98862.34;;;3.52;100.00
41515;BME280;27247;48.020;16.720;2023-12-14T04:19:12;98863.03;;;3.54;100.00
41515;BME280;27247;48.020;16.720;2023-12-14T04:23:23;98872.66;;;3.63;100.00
41515;BME280;27247;48.020;16.720;2023-12-14T04:27:33;98874.84;;;3.68;100.00
41515;BME280;27247;48.020;16.720;2023-12-14T04:31:43;98878.56;;;3.57;100.00
41515;BME280;27247;48.020;16.720;2023-12-14T04:35:54;98885.41;;;3.68;100.00
41515;BME280;27247;48.020;16.720;2023-12-14T04:40:05;98889.56;;;3.70;100.00
41515;BME280;27247;48.020;16.720;2023-12-14T04:44:15;98890.38;;;3.71;100.00
41515;BME280;27247;48.020;16.720;2023-12-14T04:48:25;98893.34;;;3.68;100.00
41515;BME280;27247;48.020;16.720;2023-12-14T04:52:36;98900.13;;;3.70;100.00
41515;BME280;27247;48.020;16.720;2023-12-14T04:56:46;98896.50;;;3.71;100.00
41515;BME280;27247;48.020;16.720;2023-12-14T05:00:56;98900.75;;;3.64;100.00
41515;BME280;27247;48.020;16.720;2023-12-14T05:05:07;98916.66;;;3.72;100.00
41515;BME280;27247;48.020;16.720;2023-12-14T05:09:17;98920.13;;;3.73;100.00
41515;BME280;27247;48.020;16.720;2023-12-14T05:13:27;98932.44;;;3.64;100.00
41515;BME280;27247;48.020;16.720;2023-12-14T05:17:38;98935.28;;;3.71;100.00
41515;BME280;27247;48.020;16.720;2023-12-14T05:21:48;98927.88;;;3.74;100.00
41515;BME280;27247;48.020;16.720;2023-12-14T05:25:58;98920.78;;;3.75;100.00
41515;BME280;27247;48.020;16.720;2023-12-14T05:30:09;98923.06;;;3.70;100.00
41515;BME280;27247;48.020;16.720;2023-12-14T05:34:19;98927.22;;;3.72;100.00
41515;BME280;27247;48.020;16.720;2023-12-14T05:38:30;98936.44;;;3.68;100.00
41515;BME280;27247;48.020;16.720;2023-12-14T05:42:40;98951.97;;;3.71;100.00
41515;BME280;27247;48.020;16.720;2023-12-14T05:46:50;98954.63;;;3.71;100.00
41515;BME280;27247;48.020;16.720;2023-12-14T05:51:01;98961.03;;;3.69;100.00
41515;BME280;27247;48.020;16.720;2023-12-14T05:55:11;98957.56;;;3.68;100.00
41515;BME280;27247;48.020;16.720;2023-12-14T05:59:21;98961.50;;;3.64;100.00
41515;BME280;27247;48.020;16.720;2023-12-14T06:03:32;98964.44;;;3.61;100.00
41515;BME280;27247;48.020;16.720;2023-12-14T06:07:42;98980.81;;;3.65;100.00
41515;BME280;27247;48.020;16.720;2023-12-14T06:11:52;98975.22;;;3.68;100.00
41515;BME280;27247;48.020;16.720;2023-12-14T06:16:03;98979.00;;;3.65;100.00
41515;BME280;27247;48.020;16.720;2023-12-14T06:20:14;98988.66;;;3.74;100.00
41515;BME280;27247;48.020;16.720;2023-12-14T06:24:24;98996.44;;;3.76;100.00
41515;BME280;27247;48.020;16.720;2023-12-14T06:28:35;98998.91;;;3.77;100.00
41515;BME280;27247;48.020;16.720;2023-12-14T06:32:45;98995.81;;;3.82;100.00
41515;BME280;27247;48.020;16.720;2023-12-14T06:36:55;99016.50;;;3.87;100.00
41515;BME280;27247;48.020;16.720;2023-12-14T06:41:08;99022.75;;;3.85;100.00
41515;BME280;27247;48.020;16.720;2023-12-14T06:45:19;99025.41;;;3.85;100.00
41515;BME280;27247;48.020;16.720;2023-12-14T06:49:29;99037.78;;;3.85;100.00
41515;BME280;27247;48.020;16.720;2023-12-14T06:53:40;99039.00;;;3.91;100.00
41515;BME280;27247;48.020;16.720;2023-12-14T06:57:51;99058.47;;;3.90;100.00
41515;BME280;27247;48.020;16.720;2023-12-14T07:02:01;99062.94;;;3.89;100.00
41515;BME280;27247;48.020;16.720;2023-12-14T07:06:15;99070.56;;;3.92;100.00
41515;BME280;27247;48.020;16.720;2023-12-14T07:10:26;99082.69;;;4.03;100.00
41515;BME280;27247;48.020;16.720;2023-12-14T07:14:36;99092.75;;;3.99;100.00
41515;BME280;27247;48.020;16.720;2023-12-14T07:18:46;99097.13;;;4.08;100.00
41515;BME280;27247;48.020;16.720;2023-12-14T07:22:57;99099.97;;;4.15;100.00
41515;BME280;27247;48.020;16.720;2023-12-14T07:27:07;99102.50;;;4.16;100.00
41515;BME280;27247;48.020;16.720;2023-12-14T07:31:17;99109.31;;;4.19;100.00
41515;BME280;27247;48.020;16.720;2023-12-14T07:35:28;99110.34;;;4.26;100.00
41515;BME280;27247;48.020;16.720;2023-12-14T07:39:38;99113.97;;;4.25;100.00
41515;BME280;27247;48.020;16.720;2023-12-14T07:43:48;99116.84;;;4.32;100.00
41515;BME280;27247;48.020;16.720;2023-12-14T07:47:59;99121.00;;;4.34;100.00
41515;BME280;27247;48.020;16.720;2023-12-14T07:52:09;99128.31;;;4.40;100.00
41515;BME280;27247;48.020;16.720;2023-12-14T07:56:20;99133.00;;;4.46;100.00
41515;BME280;27247;48.020;16.720;2023-12-14T08:00:35;99152.41;;;4.55;100.00
41515;BME280;27247;48.020;16.720;2023-12-14T08:04:45;99152.47;;;4.63;100.00
41515;BME280;27247;48.020;16.720;2023-12-14T08:08:56;99171.56;;;4.75;100.00
41515;BME280;27247;48.020;16.720;2023-12-14T08:13:09;99170.25;;;4.79;100.00
41515;BME280;27247;48.020;16.720;2023-12-14T08:17:21;99173.88;;;4.78;100.00
41515;BME280;27247;48.020;16.720;2023-12-14T08:21:31;99170.53;;;4.94;100.00
41515;BME280;27247;48.020;16.720;2023-12-14T08:25:41;99187.97;;;5.04;100.00
41515;BME280;27247;48.020;16.720;2023-12-14T08:29:51;99189.59;;;5.23;100.00
41515;BME280;27247;48.020;16.720;2023-12-14T08:34:02;99195.59;;;5.33;100.00
41515;BME280;27247;48.020;16.720;2023-12-14T08:38:13;99197.16;;;5.52;100.00
41515;BME280;27247;48.020;16.720;2023-12-14T08:42:23;99207.28;;;5.57;100.00
41515;BME280;27247;48.020;16.720;2023-12-14T08:46:44;99211.84;;;5.72;100.00
41515;BME280;27247;48.020;16.720;2023-12-14T08:50:55;99213.84;;;5.78;100.00
41515;BME280;27247;48.020;16.720;2023-12-14T08:55:06;99232.13;;;5.90;100.00
41515;BME280;27247;48.020;16.720;2023-12-14T08:59:17;99236.81;;;6.04;100.00
41515;BME280;27247;48.020;16.720;2023-12-14T09:03:29;99251.25;;;6.09;100.00
41515;BME280;27247;48.020;16.720;2023-12-14T09:07:39;99258.06;;;6.12;100.00
41515;BME280;27247;48.020;16.720;2023-12-14T09:11:50;99269.38;;;6.22;100.00
41515;BME280;27247;48.020;16.720;2023-12-14T09:16:00;99268.75;;;6.28;100.00
41515;BME280;27247;48.020;16.720;2023-12-14T09:20:11;99275.06;;;6.35;100.00
41515;BME280;27247;48.020;16.720;2023-12-14T09:24:21;99274.72;;;6.30;100.00
41515;BME280;27247;48.020;16.720;2023-12-14T09:28:32;99289.50;;;6.41;100.00
41515;BME280;27247;48.020;16.720;2023-12-14T09:32:42;99284.03;;;6.34;100.00
41515;BME280;27247;48.020;16.720;2023-12-14T09:36:53;99283.22;;;6.42;100.00
41515;BME280;27247;48.020;16.720;2023-12-14T09:41:03;99298.81;;;6.53;100.00
41515;BME280;27247;48.020;16.720;2023-12-14T09:45:16;99296.50;;;6.58;100.00
41515;BME280;27247;48.020;16.720;2023-12-14T09:49:27;99313.09;;;6.60;100.00
41515;BME280;27247;48.020;16.720;2023-12-14T09:53:40;99298.50;;;6.56;100.00
41515;BME280;27247;48.020;16.720;2023-12-14T09:57:50;99300.66;;;6.61;100.00
41515;BME280;27247;48.020;16.720;2023-12-14T10:02:11;99310.97;;;6.72;100.00
41515;BME280;27247;48.020;16.720;2023-12-14T10:06:22;99308.00;;;6.83;100.00
41515;BME280;27247;48.020;16.720;2023-12-14T10:10:33;99314.13;;;6.92;100.00
41515;BME280;27247;48.020;16.720;2023-12-14T10:14:43;99319.44;;;7.00;100.00
41515;BME280;27247;48.020;16.720;2023-12-14T10:18:55;99327.91;;;7.12;100.00
41515;BME280;27247;48.020;16.720;2023-12-14T10:23:07;99328.91;;;7.27;100.00
41515;BME280;27247;48.020;16.720;2023-12-14T10:27:17;99330.25;;;7.39;100.00
41515;BME280;27247;48.020;16.720;2023-12-14T10:31:28;99331.56;;;7.51;100.00
41515;BME280;27247;48.020;16.720;2023-12-14T10:35:38;99334.88;;;7.61;100.00
41515;BME280;27247;48.020;16.720;2023-12-14T10:39:49;99337.19;;;7.73;100.00
41515;BME280;27247;48.020;16.720;2023-12-14T10:44:01;99342.28;;;7.98;100.00
41515;BME280;27247;48.020;16.720;2023-12-14T10:48:12;99346.88;;;8.13;100.00
41515;BME280;27247;48.020;16.720;2023-12-14T10:52:24;99350.00;;;8.32;100.00
41515;BME280;27247;48.020;16.720;2023-12-14T10:56:35;99359.59;;;8.50;100.00
41515;BME280;27247;48.020;16.720;2023-12-14T11:01:01;99353.81;;;8.69;98.09
41515;BME280;27247;48.020;16.720;2023-12-14T11:05:13;99369.09;;;8.75;96.54
41515;BME280;27247;48.020;16.720;2023-12-14T11:09:26;99373.00;;;8.64;95.86
41515;BME280;27247;48.020;16.720;2023-12-14T11:13:39;99375.19;;;8.61;96.35
41515;BME280;27247;48.020;16.720;2023-12-14T11:22:24;99375.88;;;8.55;96.15
41515;BME280;27247;48.020;16.720;2023-12-14T11:26:37;99385.13;;;8.67;97.38
41515;BME280;27247;48.020;16.720;2023-12-14T11:30:47;99380.06;;;8.80;96.04
41515;BME280;27247;48.020;16.720;2023-12-14T11:34:58;99389.84;;;8.88;95.74
41515;BME280;27247;48.020;16.720;2023-12-14T11:39:11;99388.97;;;9.18;94.88
41515;BME280;27247;48.020;16.720;2023-12-14T11:43:21;99392.97;;;9.45;91.25
41515;BME280;27247;48.020;16.720;2023-12-14T11:47:33;99394.16;;;9.43;91.36
41515;BME280;27247;48.020;16.720;2023-12-14T11:51:46;99399.63;;;9.64;89.41
41515;BME280;27247;48.020;16.720;2023-12-14T11:55:56;99399.94;;;9.84;90.18
41515;BME280;27247;48.020;16.720;2023-12-14T12:00:07;99401.53;;;9.93;89.21
41515;BME280;27247;48.020;16.720;2023-12-14T12:04:19;99407.81;;;10.00;89.06
41515;BME280;27247;48.020;16.720;2023-12-14T12:08:29;99409.00;;;9.98;89.33
41515;BME280;27247;48.020;16.720;2023-12-14T12:12:40;99413.25;;;9.69;88.41
41515;BME280;27247;48.020;16.720;2023-12-14T12:16:51;99411.28;;;9.48;88.88
41515;BME280;27247;48.020;16.720;2023-12-14T12:21:03;99416.50;;;9.42;90.02
41515;BME280;27247;48.020;16.720;2023-12-14T12:25:16;99414.84;;;9.41;90.71
41515;BME280;27247;48.020;16.720;2023-12-14T12:29:26;99418.25;;;9.72;90.66
41515;BME280;27247;48.020;16.720;2023-12-14T12:33:37;99424.16;;;9.82;89.84
41515;BME280;27247;48.020;16.720;2023-12-14T12:37:47;99431.91;;;9.54;89.49
41515;BME280;27247;48.020;16.720;2023-12-14T12:42:03;99443.69;;;9.37;89.38
41515;BME280;27247;48.020;16.720;2023-12-14T12:46:14;99447.03;;;9.08;90.86
41515;BME280;27247;48.020;16.720;2023-12-14T12:50:24;99458.13;;;8.89;92.08
41515;BME280;27247;48.020;16.720;2023-12-14T12:54:34;99459.50;;;8.77;93.41
41515;BME280;27247;48.020;16.720;2023-12-14T12:58:44;99459.25;;;8.55;94.03
41515;BME280;27247;48.020;16.720;2023-12-14T13:02:55;99467.97;;;8.41;94.83
41515;BME280;27247;48.020;16.720;2023-12-14T13:07:06;99476.25;;;8.30;96.13
41515;BME280;27247;48.020;16.720;2023-12-14T13:11:16;99483.75;;;8.26;96.77
41515;BME280;27247;48.020;16.720;2023-12-14T13:15:27;99489.91;;;8.11;97.27
41515;BME280;27247;48.020;16.720;2023-12-14T13:19:39;99498.25;;;8.08;97.96
41515;BME280;27247;48.020;16.720;2023-12-14T13:23:49;99504.22;;;8.01;98.89
41515;BME280;27247;48.020;16.720;2023-12-14T13:28:01;99503.25;;;7.94;99.71
41515;BME280;27247;48.020;16.720;2023-12-14T13:32:11;99505.72;;;8.04;99.69
41515;BME280;27247;48.020;16.720;2023-12-14T13:36:21;99511.72;;;7.90;100.00
41515;BME280;27247;48.020;16.720;2023-12-14T13:40:32;99524.19;;;7.97;100.00
41515;BME280;27247;48.020;16.720;2023-12-14T13:44:42;99539.66;;;7.94;100.00
41515;BME280;27247;48.020;16.720;2023-12-14T13:48:52;99542.16;;;7.79;100.00
41515;BME280;27247;48.020;16.720;2023-12-14T13:53:03;99554.78;;;7.77;100.00
41515;BME280;27247;48.020;16.720;2023-12-14T13:57:14;99570.25;;;7.82;100.00
41515;BME280;27247;48.020;16.720;2023-12-14T14:01:25;99583.19;;;7.77;100.00
41515;BME280;27247;48.020;16.720;2023-12-14T14:05:35;99587.03;;;7.74;100.00
41515;BME280;27247;48.020;16.720;2023-12-14T14:09:45;99597.81;;;7.73;100.00
41515;BME280;27247;48.020;16.720;2023-12-14T14:13:55;99606.63;;;7.73;100.00
41515;BME280;27247;48.020;16.720;2023-12-14T14:18:06;99608.75;;;7.61;100.00
41515;BME280;27247;48.020;16.720;2023-12-14T14:22:16;99611.72;;;7.50;100.00
41515;BME280;27247;48.020;16.720;2023-12-14T14:26:26;99627.31;;;7.45;100.00
41515;BME280;27247;48.020;16.720;2023-12-14T14:30:37;99628.28;;;7.36;100.00
41515;BME280;27247;48.020;16.720;2023-12-14T14:34:47;99626.63;;;7.35;100.00
41515;BME280;27247;48.020;16.720;2023-12-14T14:38:57;99637.19;;;7.27;100.00
41515;BME280;27247;48.020;16.720;2023-12-14T14:43:09;99641.47;;;7.20;100.00
41515;BME280;27247;48.020;16.720;2023-12-14T14:47:19;99645.44;;;7.16;100.00
41515;BME280;27247;48.020;16.720;2023-12-14T14:51:30;99659.03;;;7.13;100.00
41515;BME280;27247;48.020;16.720;2023-12-14T14:55:40;99668.63;;;7.05;100.00
41515;BME280;27247;48.020;16.720;2023-12-14T14:59:51;99672.28;;;7.04;100.00
41515;BME280;27247;48.020;16.720;2023-12-14T15:04:01;99688.16;;;6.96;100.00
41515;BME280;27247;48.020;16.720;2023-12-14T15:08:11;99697.81;;;6.97;100.00
41515;BME280;27247;48.020;16.720;2023-12-14T15:12:23;99696.81;;;6.98;100.00
41515;BME280;27247;48.020;16.720;2023-12-14T15:16:33;99716.88;;;6.93;100.00
41515;BME280;27247;48.020;16.720;2023-12-14T15:20:45;99719.78;;;6.82;100.00
41515;BME280;27247;48.020;16.720;2023-12-14T15:24:55;99730.84;;;6.77;100.00
41515;BME280;27247;48.020;16.720;2023-12-14T15:29:06;99727.31;;;6.68;100.00
41515;BME280;27247;48.020;16.720;2023-12-14T15:33:17;99742.56;;;6.66;100.00
41515;BME280;27247;48.020;16.720;2023-12-14T15:37:27;99747.94;;;6.75;100.00
41515;BME280;27247;48.020;16.720;2023-12-14T15:41:38;99756.34;;;6.70;100.00
41515;BME280;27247;48.020;16.720;2023-12-14T15:45:48;99759.91;;;6.79;100.00
41515;BME280;27247;48.020;16.720;2023-12-14T15:49:58;99760.16;;;6.67;100.00
41515;BME280;27247;48.020;16.720;2023-12-14T15:54:09;99772.22;;;6.62;100.00
41515;BME280;27247;48.020;16.720;2023-12-14T15:58:19;99773.59;;;6.66;100.00
41515;BME280;27247;48.020;16.720;2023-12-14T16:02:29;99780.72;;;6.65;100.00
41515;BME280;27247;48.020;16.720;2023-12-14T16:06:39;99781.69;;;6.64;100.00
41515;BME280;27247;48.020;16.720;2023-12-14T16:10:50;99791.72;;;6.70;100.00
41515;BME280;27247;48.020;16.720;2023-12-14T16:15:03;99791.63;;;6.62;100.00
41515;BME280;27247;48.020;16.720;2023-12-14T16:19:14;99791.63;;;6.62;100.00
41515;BME280;27247;48.020;16.720;2023-12-14T16:23:24;99802.03;;;6.56;100.00
41515;BME280;27247;48.020;16.720;2023-12-14T16:27:34;99803.78;;;6.65;100.00
41515;BME280;27247;48.020;16.720;2023-12-14T16:31:45;99810.97;;;6.55;100.00
41515;BME280;27247;48.020;16.720;2023-12-14T16:35:55;99826.44;;;6.59;100.00
41515;BME280;27247;48.020;16.720;2023-12-14T16:40:06;99835.56;;;6.57;100.00
41515;BME280;27247;48.020;16.720;2023-12-14T16:44:16;99834.47;;;6.50;100.00
41515;BME280;27247;48.020;16.720;2023-12-14T16:48:27;99839.78;;;6.50;100.00
41515;BME280;27247;48.020;16.720;2023-12-14T16:52:37;99849.13;;;6.54;100.00
41515;BME280;27247;48.020;16.720;2023-12-14T16:56:48;99855.72;;;6.50;100.00
41515;BME280;27247;48.020;16.720;2023-12-14T17:00:58;99869.53;;;6.53;100.00
41515;BME280;27247;48.020;16.720;2023-12-14T17:05:08;99871.06;;;6.56;100.00
41515;BME280;27247;48.020;16.720;2023-12-14T17:09:18;99877.25;;;6.47;100.00
41515;BME280;27247;48.020;16.720;2023-12-14T17:13:29;99878.09;;;6.47;100.00
41515;BME280;27247;48.020;16.720;2023-12-14T17:17:40;99882.94;;;6.52;100.00
41515;BME280;27247;48.020;16.720;2023-12-14T17:21:50;99902.06;;;6.55;100.00
41515;BME280;27247;48.020;16.720;2023-12-14T17:26:01;99909.28;;;6.63;100.00
41515;BME280;27247;48.020;16.720;2023-12-14T17:30:13;99912.50;;;6.66;100.00
41515;BME280;27247;48.020;16.720;2023-12-14T17:34:23;99919.06;;;6.62;100.00
41515;BME280;27247;48.020;16.720;2023-12-14T17:38:35;99923.31;;;6.55;100.00
41515;BME280;27247;48.020;16.720;2023-12-14T17:42:46;99928.19;;;6.60;100.00
41515;BME280;27247;48.020;16.720;2023-12-14T17:46:57;99928.63;;;6.55;100.00
41515;BME280;27247;48.020;16.720;2023-12-14T17:51:08;99926.94;;;6.54;100.00
41515;BME280;27247;48.020;16.720;2023-12-14T17:55:18;99931.28;;;6.55;100.00
41515;BME280;27247;48.020;16.720;2023-12-14T17:59:28;99930.72;;;6.52;100.00
41515;BME280;27247;48.020;16.720;2023-12-14T18:03:39;99933.81;;;6.47;100.00
41515;BME280;27247;48.020;16.720;2023-12-14T18:07:53;99958.00;;;6.44;100.00
41515;BME280;27247;48.020;16.720;2023-12-14T18:12:03;99959.97;;;6.42;100.00
41515;BME280;27247;48.020;16.720;2023-12-14T18:16:15;99962.22;;;6.37;100.00
41515;BME280;27247;48.020;16.720;2023-12-14T18:20:25;99972.97;;;6.45;100.00
41515;BME280;27247;48.020;16.720;2023-12-14T18:24:35;99976.88;;;6.41;100.00
41515;BME280;27247;48.020;16.720;2023-12-14T18:28:46;99981.59;;;6.47;100.00
41515;BME280;27247;48.020;16.720;2023-12-14T18:32:56;99984.00;;;6.40;100.00
41515;BME280;27247;48.020;16.720;2023-12-14T18:37:07;99986.81;;;6.39;100.00
41515;BME280;27247;48.020;16.720;2023-12-14T18:41:23;99992.66;;;6.43;100.00
41515;BME280;27247;48.020;16.720;2023-12-14T18:45:35;100009.84;;;6.38;100.00
41515;BME280;27247;48.020;16.720;2023-12-14T18:49:47;100008.03;;;6.39;100.00
41515;BME280;27247;48.020;16.720;2023-12-14T18:53:58;100022.84;;;6.42;100.00
41515;BME280;27247;48.020;16.720;2023-12-14T18:58:08;100018.06;;;6.45;100.00
41515;BME280;27247;48.020;16.720;2023-12-14T19:02:22;100030.66;;;6.43;100.00
41515;BME280;27247;48.020;16.720;2023-12-14T19:06:35;100038.63;;;6.43;100.00
41515;BME280;27247;48.020;16.720;2023-12-14T19:10:46;100046.59;;;6.43;100.00
41515;BME280;27247;48.020;16.720;2023-12-14T19:14:57;100053.03;;;6.40;100.00
41515;BME280;27247;48.020;16.720;2023-12-14T19:19:08;100059.84;;;6.43;100.00
41515;BME280;27247;48.020;16.720;2023-12-14T19:23:19;100059.03;;;6.43;100.00
41515;BME280;27247;48.020;16.720;2023-12-14T19:27:30;100074.69;;;6.36;100.00
41515;BME280;27247;48.020;16.720;2023-12-14T19:31:41;100080.53;;;6.39;100.00
41515;BME280;27247;48.020;16.720;2023-12-14T19:35:52;100080.53;;;6.39;100.00
41515;BME280;27247;48.020;16.720;2023-12-14T19:40:03;100083.75;;;6.43;100.00
41515;BME280;27247;48.020;16.720;2023-12-14T19:44:15;100089.63;;;6.37;100.00
41515;BME280;27247;48.020;16.720;2023-12-14T19:48:26;100091.59;;;6.35;100.00
41515;BME280;27247;48.020;16.720;2023-12-14T19:52:39;100090.59;;;6.36;100.00
41515;BME280;27247;48.020;16.720;2023-12-14T19:56:50;100105.56;;;6.37;100.00
41515;BME280;27247;48.020;16.720;2023-12-14T20:01:02;100121.47;;;6.37;100.00
41515;BME280;27247;48.020;16.720;2023-12-14T20:05:14;100120.38;;;6.30;100.00
41515;BME280;27247;48.020;16.720;2023-12-14T20:09:25;100122.19;;;6.29;100.00
41515;BME280;27247;48.020;16.720;2023-12-14T20:13:36;100130.13;;;6.29;100.00
41515;BME280;27247;48.020;16.720;2023-12-14T20:17:47;100140.47;;;6.32;100.00
41515;BME280;27247;48.020;16.720;2023-12-14T20:21:57;100146.06;;;6.29;100.00
41515;BME280;27247;48.020;16.720;2023-12-14T20:26:08;100143.56;;;6.28;100.00
41515;BME280;27247;48.020;16.720;2023-12-14T20:30:22;100160.13;;;6.20;100.00
41515;BME280;27247;48.020;16.720;2023-12-14T20:34:33;100154.97;;;6.19;100.00
41515;BME280;27247;48.020;16.720;2023-12-14T20:38:43;100168.41;;;6.27;100.00
41515;BME280;27247;48.020;16.720;2023-12-14T20:42:54;100170.78;;;6.30;100.00
41515;BME280;27247;48.020;16.720;2023-12-14T20:47:05;100174.41;;;6.29;100.00
41515;BME280;27247;48.020;16.720;2023-12-14T20:51:15;100178.31;;;6.34;100.00
41515;BME280;27247;48.020;16.720;2023-12-14T20:55:26;100192.28;;;6.36;100.00
41515;BME280;27247;48.020;16.720;2023-12-14T20:59:37;100178.47;;;6.33;100.00
41515;BME280;27247;48.020;16.720;2023-12-14T21:03:47;100192.69;;;6.22;100.00
41515;BME280;27247;48.020;16.720;2023-12-14T21:08:00;100205.16;;;6.31;100.00
41515;BME280;27247;48.020;16.720;2023-12-14T21:12:10;100201.25;;;6.35;100.00
41515;BME280;27247;48.020;16.720;2023-12-14T21:16:21;100203.63;;;6.38;100.00
41515;BME280;27247;48.020;16.720;2023-12-14T21:20:31;100210.19;;;6.34;100.00
41515;BME280;27247;48.020;16.720;2023-12-14T21:24:42;100216.19;;;6.36;100.00
41515;BME280;27247;48.020;16.720;2023-12-14T21:28:53;100227.34;;;6.40;100.00
41515;BME280;27247;48.020;16.720;2023-12-14T21:33:03;100228.63;;;6.46;100.00
41515;BME280;27247;48.020;16.720;2023-12-14T21:37:17;100228.34;;;6.39;100.00
41515;BME280;27247;48.020;16.720;2023-12-14T21:41:27;100233.66;;;6.49;100.00
41515;BME280;27247;48.020;16.720;2023-12-14T21:45:38;100238.13;;;6.48;100.00
41515;BME280;27247;48.020;16.720;2023-12-14T21:49:49;100240.78;;;6.48;100.00
41515;BME280;27247;48.020;16.720;2023-12-14T21:53:59;100239.94;;;6.48;100.00
41515;BME280;27247;48.020;16.720;2023-12-14T21:58:10;100247.19;;;6.46;100.00